CheckWX is a tool to help pilots better visualize weather data.  It is not intended as a substitute for an official pre-flight weather briefing.

06:56:03 UTC

KBRD TAF
Brainerd Lakes Regional Airport
Brainerd, Minnesota, USA
KBRD 160524Z 1606/1706 08007KT P6SM VCSH OVC050 FM160800 08006KT P6SM OVC045 FM161300 09008KT P6SM -RA OVC030 FM161500 11009KT P6SM -RA OVC025 FM162000 12006KT P6SM OVC035

Jun-16@
06:00 UTC

Jun-16 @ 06:00 UTC

Jun-16@
08:00 UTC

Jun-16 @ 08:00 UTC

KBRD 160524Z 1606/1706 08007KT P6SM VCSH OVC050
Wind
  • 080° at 7 KTS
Cloud Levels
  • Overcast at 5,000' AGL

Jun-16@
08:00 UTC

Jun-16 @ 08:00 UTC

Jun-16@
13:00 UTC

Jun-16 @ 13:00 UTC

FM160800 08006KT P6SM OVC045

From

From Standard forecast or significant change

Wind
  • 080° at 6 KTS
Cloud Levels
  • Overcast at 4,500' AGL

Jun-16@
13:00 UTC

Jun-16 @ 13:00 UTC

Jun-16@
15:00 UTC

Jun-16 @ 15:00 UTC

FM161300 09008KT P6SM -RA OVC030

From

From Standard forecast or significant change

Wind
  • 090° at 8 KTS
Conditions
Light Rain
Cloud Levels
  • Overcast at 3,000' AGL

Jun-16@
15:00 UTC

Jun-16 @ 15:00 UTC

Jun-16@
20:00 UTC

Jun-16 @ 20:00 UTC

FM161500 11009KT P6SM -RA OVC025

From

From Standard forecast or significant change

Wind
  • 110° at 9 KTS
Conditions
Light Rain
Cloud Levels
  • Overcast at 2,500' AGL

Jun-16@
20:00 UTC

Jun-16 @ 20:00 UTC

Jun-17@
06:00 UTC

Jun-17 @ 06:00 UTC

FM162000 12006KT P6SM OVC035

From

From Standard forecast or significant change

Wind
  • 120° at 6 KTS
Cloud Levels
  • Overcast at 3,500' AGL